createdAt,value
2022-11-13T00:01:12.372Z,223.02
2022-11-13T00:02:33.986Z,229.65
2022-11-13T00:03:56.122Z,299.52
2022-11-13T00:05:18.798Z,241.20
2022-11-13T00:06:40.990Z,412.55
2022-11-13T00:08:02.265Z,346.65
2022-11-13T00:09:24.675Z,387.02
2022-11-13T00:10:46.093Z,369.58
2022-11-13T00:12:08.158Z,352.63
2022-11-13T00:13:30.717Z,347.55
2022-11-13T00:14:54.694Z,383.65
2022-11-13T00:16:17.523Z,287.42
2022-11-13T00:17:39.815Z,366.25
2022-11-13T00:19:02.342Z,407.60
2022-11-13T00:20:23.814Z,255.18
2022-11-13T00:21:45.964Z,242.63
2022-11-13T00:23:07.282Z,279.70
2022-11-13T00:24:29.394Z,157.18
2022-11-13T00:25:50.807Z,193.20
2022-11-13T00:27:12.922Z,147.32
2022-11-13T00:28:34.023Z,192.43
2022-11-13T00:29:58.063Z,279.23
2022-11-13T00:31:20.282Z,308.50
2022-11-13T00:32:42.635Z,284.50
2022-11-13T00:34:20.003Z,275.92
2022-11-13T00:35:47.113Z,338.25
2022-11-13T00:37:09.544Z,313.55
2022-11-13T00:38:32.111Z,475.73
2022-11-13T00:39:59.479Z,471.55
2022-11-13T00:41:21.890Z,425.73
2022-11-13T00:42:44.183Z,475.38
2022-11-13T00:44:06.682Z,211.88
2022-11-13T00:45:30.125Z,313.67
2022-11-13T00:46:52.425Z,293.40
2022-11-13T00:48:14.699Z,317.40
2022-11-13T00:49:37.249Z,434.65
2022-11-13T00:50:58.902Z,281.17
2022-11-13T00:52:21.232Z,299.17
2022-11-13T00:53:43.683Z,261.75
2022-11-13T00:55:06.723Z,275.58
2022-11-13T00:56:29.469Z,393.92
2022-11-13T00:57:50.702Z,451.40
2022-11-13T00:59:13.124Z,290.50
2022-11-13T01:00:36.985Z,448.38
2022-11-13T01:01:59.368Z,415.13
2022-11-13T01:03:20.824Z,389.38
2022-11-13T01:04:43.214Z,283.33
2022-11-13T01:06:11.928Z,373.70
2022-11-13T01:07:33.002Z,397.20
2022-11-13T01:08:56.799Z,353.77
2022-11-13T01:10:19.575Z,350.13
2022-11-13T01:11:41.799Z,294.73
2022-11-13T01:13:03.097Z,370.05
2022-11-13T01:14:26.352Z,268.90
2022-11-13T01:15:49.262Z,358.77
2022-11-13T01:17:11.404Z,328.88
2022-11-13T01:18:32.414Z,398.25
2022-11-13T01:19:54.875Z,377.38
2022-11-13T01:21:18.632Z,380.55
2022-11-13T01:22:40.834Z,414.67
2022-11-13T01:24:02.234Z,399.90
2022-11-13T01:27:02.162Z,319.50
2022-11-13T01:28:24.669Z,388.23
2022-11-13T01:29:46.964Z,352.25
2022-11-13T01:31:12.195Z,248.32
2022-11-13T01:32:34.912Z,255.93
2022-11-13T01:33:57.487Z,327.05
2022-11-13T01:35:18.633Z,270.95
2022-11-13T01:36:40.974Z,283.73
2022-11-13T01:38:03.276Z,283.65
2022-11-13T01:39:25.465Z,238.68
2022-11-13T01:40:48.022Z,262.45
2022-11-13T01:42:10.486Z,283.15
2022-11-13T01:43:34.460Z,248.02
2022-11-13T01:44:59.848Z,295.63
2022-11-13T01:46:33.965Z,281.73
2022-11-13T01:47:55.004Z,247.15
2022-11-13T01:49:27.611Z,284.05
2022-11-13T01:50:48.993Z,302.50
2022-11-13T01:52:13.243Z,301.27
2022-11-13T01:53:34.573Z,320.73
2022-11-13T01:54:58.977Z,290.67
2022-11-13T01:56:20.404Z,258.45
2022-11-13T01:57:43.184Z,279.83
2022-11-13T01:59:07.362Z,285.80
2022-11-13T02:00:29.742Z,352.92
2022-11-13T02:01:53.697Z,395.05
2022-11-13T02:03:15.216Z,420.60
2022-11-13T02:04:37.843Z,416.80
2022-11-13T02:05:59.363Z,332.65
2022-11-13T02:07:23.282Z,377.20
2022-11-13T02:08:45.604Z,385.55
2022-11-13T02:10:09.105Z,375.27
2022-11-13T02:11:30.684Z,371.75
2022-11-13T02:12:53.572Z,356.35
2022-11-13T02:14:15.409Z,356.70
2022-11-13T02:15:38.461Z,321.13
2022-11-13T02:17:04.907Z,345.20
2022-11-13T02:18:26.964Z,285.17
2022-11-13T02:19:52.626Z,300.08
2022-11-13T02:21:24.334Z,327.38
2022-11-13T02:22:49.781Z,289.40
2022-11-13T02:24:28.767Z,247.68
2022-11-13T02:25:52.846Z,225.68
2022-11-13T02:27:18.432Z,197.85
2022-11-13T02:28:40.924Z,180.52
2022-11-13T02:30:18.117Z,191.13
2022-11-13T02:31:41.083Z,173.90
2022-11-13T02:33:03.213Z,166.77
2022-11-13T02:34:24.345Z,133.95
2022-11-13T02:35:46.734Z,136.70
2022-11-13T02:37:09.133Z,151.45
2022-11-13T02:38:30.917Z,144.75
2022-11-13T02:39:54.794Z,146.10
2022-11-13T02:41:16.310Z,151.13
2022-11-13T02:42:38.393Z,147.25
2022-11-13T02:43:59.816Z,150.63
2022-11-13T02:45:22.374Z,160.05
2022-11-13T02:46:44.830Z,138.95
2022-11-13T02:48:08.072Z,134.38
2022-11-13T02:49:30.504Z,128.00
2022-11-13T02:50:51.586Z,177.63
2022-11-13T02:52:14.004Z,150.25
2022-11-13T02:53:36.123Z,246.43
2022-11-13T02:54:59.905Z,166.10
2022-11-13T02:56:21.595Z,171.02
2022-11-13T02:57:43.731Z,167.27
2022-11-13T02:59:06.304Z,164.27
2022-11-13T03:00:28.332Z,177.35
2022-11-13T03:01:50.516Z,172.48
2022-11-13T03:03:11.805Z,162.77
2022-11-13T03:04:50.535Z,184.40
2022-11-13T03:06:16.094Z,178.50
2022-11-13T03:07:38.196Z,183.20
2022-11-13T03:09:00.646Z,184.52
2022-11-13T03:10:23.211Z,175.13
2022-11-13T03:11:45.685Z,190.02
2022-11-13T03:13:06.719Z,167.20
2022-11-13T03:14:28.873Z,170.40
2022-11-13T03:15:50.296Z,160.50
2022-11-13T03:17:13.313Z,164.75
2022-11-13T03:18:34.663Z,169.75
2022-11-13T03:19:56.598Z,161.75
2022-11-13T03:21:19.124Z,170.05
2022-11-13T03:22:40.518Z,177.98
2022-11-13T03:24:02.643Z,163.52
2022-11-13T03:25:25.413Z,183.90
2022-11-13T03:26:47.815Z,189.82
2022-11-13T03:28:09.204Z,179.55
2022-11-13T03:29:31.341Z,181.88
2022-11-13T03:30:52.614Z,178.70
2022-11-13T03:32:14.804Z,184.25
2022-11-13T03:33:37.304Z,216.43
2022-11-13T03:34:59.772Z,177.13
2022-11-13T03:36:22.534Z,208.55
2022-11-13T03:37:43.764Z,185.63
2022-11-13T03:39:06.087Z,215.63
2022-11-13T03:40:28.859Z,203.43
2022-11-13T03:41:50.969Z,193.25
2022-11-13T03:43:12.042Z,196.68
2022-11-13T03:44:34.545Z,197.80
2022-11-13T03:45:56.919Z,203.18
2022-11-13T03:47:18.342Z,178.90
2022-11-13T03:48:40.543Z,198.55
2022-11-13T03:50:02.122Z,212.02
2022-11-13T03:51:24.270Z,184.35
2022-11-13T03:52:45.605Z,199.93
2022-11-13T03:54:08.140Z,202.82
2022-11-13T03:55:30.695Z,209.50
2022-11-13T03:56:52.982Z,203.05
2022-11-13T03:58:15.656Z,210.77
2022-11-13T03:59:38.079Z,176.57
2022-11-13T04:01:00.493Z,188.35
2022-11-13T04:02:21.810Z,201.68
2022-11-13T04:03:43.983Z,200.52
2022-11-13T04:05:07.581Z,205.90
2022-11-13T04:06:28.955Z,230.10
2022-11-13T04:07:51.413Z,222.98
2022-11-13T04:09:13.764Z,244.25
2022-11-13T04:10:37.843Z,280.77
2022-11-13T04:12:00.294Z,288.90
2022-11-13T04:13:22.604Z,292.50
2022-11-13T04:14:43.741Z,291.63
2022-11-13T04:16:06.665Z,313.48
2022-11-13T04:17:29.139Z,287.80
2022-11-13T04:18:50.514Z,305.05
2022-11-13T04:20:13.593Z,348.20
2022-11-13T04:21:35.854Z,338.42
2022-11-13T04:22:57.269Z,330.70
2022-11-13T04:24:19.574Z,309.20
2022-11-13T04:25:43.603Z,330.00
2022-11-13T04:27:05.796Z,328.70
2022-11-13T04:28:27.666Z,311.77
2022-11-13T04:29:50.274Z,295.08
2022-11-13T04:31:11.696Z,267.17
2022-11-13T04:32:33.933Z,273.15
2022-11-13T04:33:56.283Z,302.88
2022-11-13T04:35:18.065Z,299.30
2022-11-13T04:36:40.355Z,280.50
2022-11-13T04:38:01.661Z,326.85
2022-11-13T04:39:23.874Z,275.80
2022-11-13T04:40:49.851Z,268.85
2022-11-13T04:42:30.240Z,344.20
2022-11-13T04:43:52.693Z,309.38
2022-11-13T04:45:14.173Z,292.52
2022-11-13T04:46:36.253Z,319.60
2022-11-13T04:47:58.582Z,321.02
2022-11-13T04:49:20.028Z,317.23
2022-11-13T04:50:41.882Z,330.25
2022-11-13T04:52:03.155Z,305.45
2022-11-13T04:53:25.189Z,288.38
2022-11-13T04:54:46.514Z,339.77
2022-11-13T04:56:10.223Z,279.23
2022-11-13T04:57:31.341Z,316.08
2022-11-13T04:58:54.413Z,328.90
2022-11-13T05:00:16.032Z,284.90
2022-11-13T05:01:38.585Z,327.70
2022-11-13T05:02:59.771Z,324.52
2022-11-13T05:04:22.223Z,285.35
2022-11-13T05:05:44.406Z,317.80
2022-11-13T05:07:05.909Z,309.35
2022-11-13T05:08:28.213Z,341.30
2022-11-13T05:09:51.059Z,325.40
2022-11-13T05:11:14.014Z,286.15
2022-11-13T05:12:36.512Z,329.27
2022-11-13T05:14:03.025Z,332.40
2022-11-13T05:15:25.741Z,282.35
2022-11-13T05:16:47.114Z,296.42
2022-11-13T05:18:09.511Z,317.65
2022-11-13T05:19:30.916Z,333.45
2022-11-13T05:20:53.012Z,305.35
2022-11-13T05:22:15.402Z,286.70
2022-11-13T05:23:36.643Z,343.00
2022-11-13T05:24:58.813Z,304.13
2022-11-13T05:26:21.564Z,281.83
2022-11-13T05:27:44.105Z,334.40
2022-11-13T05:29:06.627Z,297.90
2022-11-13T05:30:28.976Z,313.77
2022-11-13T05:31:51.250Z,316.52
2022-11-13T05:33:13.694Z,268.52
2022-11-13T05:34:36.142Z,248.07
2022-11-13T05:36:01.690Z,270.67
2022-11-13T05:37:23.970Z,153.30
2022-11-13T05:38:46.651Z,213.93
2022-11-13T05:40:10.158Z,275.15
2022-11-13T05:41:34.000Z,256.70
2022-11-13T05:42:56.355Z,260.95
2022-11-13T05:44:18.974Z,189.68
2022-11-13T05:45:41.021Z,174.05
2022-11-13T05:47:03.324Z,152.00
2022-11-13T05:48:24.868Z,127.28
2022-11-13T05:49:46.987Z,123.05
2022-11-13T05:51:09.163Z,184.25
2022-11-13T05:52:31.281Z,208.43
2022-11-13T05:53:53.402Z,268.50
2022-11-13T05:55:16.075Z,229.10
2022-11-13T05:56:38.608Z,283.27
2022-11-13T05:58:00.830Z,254.27
2022-11-13T05:59:23.343Z,281.52
2022-11-13T06:00:44.801Z,298.63
2022-11-13T06:02:07.295Z,305.20
2022-11-13T06:03:28.839Z,306.40
2022-11-13T06:04:54.080Z,290.20
2022-11-13T06:06:18.550Z,311.17
2022-11-13T06:07:40.835Z,376.92
2022-11-13T06:09:04.371Z,367.92
2022-11-13T06:10:26.534Z,327.52
2022-11-13T06:11:50.234Z,321.48
2022-11-13T06:13:11.372Z,332.52
2022-11-13T06:14:33.850Z,352.27
2022-11-13T06:16:10.779Z,373.50
2022-11-13T06:17:47.946Z,287.40
2022-11-13T06:19:11.700Z,318.08
2022-11-13T06:20:35.861Z,297.10
2022-11-13T06:21:58.398Z,322.42
2022-11-13T06:23:20.427Z,354.17
2022-11-13T06:24:42.595Z,354.92
2022-11-13T06:26:05.643Z,345.63
2022-11-13T06:27:29.735Z,334.70
2022-11-13T06:28:52.499Z,351.83
2022-11-13T06:30:15.748Z,384.83
2022-11-13T06:31:37.669Z,367.20
2022-11-13T06:33:00.120Z,341.95
2022-11-13T06:34:22.467Z,337.67
2022-11-13T06:35:43.877Z,364.13
2022-11-13T06:37:06.149Z,317.67
2022-11-13T06:38:27.890Z,340.00
2022-11-13T06:39:50.348Z,327.10
2022-11-13T06:41:13.035Z,285.85
2022-11-13T06:42:36.928Z,320.02
2022-11-13T06:44:02.634Z,350.98
2022-11-13T06:45:26.041Z,315.48
2022-11-13T06:46:48.366Z,307.23
2022-11-13T06:48:09.717Z,407.15
2022-11-13T06:49:31.667Z,244.45
2022-11-13T06:50:53.047Z,274.02
2022-11-13T06:52:15.554Z,272.88
2022-11-13T06:53:36.626Z,392.23
2022-11-13T06:55:00.248Z,284.88
2022-11-13T06:56:23.209Z,252.45
2022-11-13T06:57:46.009Z,228.18
2022-11-13T06:59:08.709Z,207.80
2022-11-13T07:00:36.193Z,217.82
2022-11-13T07:01:59.017Z,204.32
2022-11-13T07:03:23.175Z,249.75
2022-11-13T07:04:45.698Z,211.52
2022-11-13T07:06:08.796Z,230.93
2022-11-13T07:07:31.125Z,239.77
2022-11-13T07:08:53.683Z,226.38
2022-11-13T07:10:16.416Z,292.55
2022-11-13T07:11:38.589Z,267.67
2022-11-13T07:13:02.409Z,278.55
2022-11-13T07:14:24.957Z,314.02
2022-11-13T07:15:46.319Z,285.70
2022-11-13T07:17:10.023Z,277.08
2022-11-13T07:18:32.276Z,287.25
2022-11-13T07:19:54.709Z,236.10
2022-11-13T07:21:17.160Z,250.82
2022-11-13T07:22:39.428Z,282.45
2022-11-13T07:24:01.981Z,291.67
2022-11-13T07:25:23.027Z,329.13
2022-11-13T07:26:45.406Z,310.20
2022-11-13T07:28:09.398Z,317.88
2022-11-13T07:29:31.708Z,298.05
2022-11-13T07:30:54.117Z,199.02
2022-11-13T07:32:16.501Z,248.70
2022-11-13T07:33:37.894Z,225.70
2022-11-13T07:35:00.177Z,238.10
2022-11-13T07:36:22.531Z,331.77
2022-11-13T07:37:43.997Z,326.30
2022-11-13T07:39:06.583Z,284.55
2022-11-13T07:40:27.986Z,305.80
2022-11-13T07:41:50.488Z,324.17
2022-11-13T07:43:14.125Z,332.30
2022-11-13T07:46:18.098Z,238.98
2022-11-13T07:47:40.078Z,262.15
2022-11-13T07:49:02.627Z,298.30
2022-11-13T07:50:24.948Z,245.55
2022-11-13T07:51:47.527Z,211.30
2022-11-13T07:53:10.482Z,195.93
2022-11-13T07:54:33.059Z,261.02
2022-11-13T07:55:55.623Z,219.60
2022-11-13T07:57:18.192Z,233.10
2022-11-13T07:58:41.760Z,261.25
2022-11-13T08:00:03.144Z,191.52
2022-11-13T08:01:25.347Z,229.52
2022-11-13T08:02:48.549Z,206.27
2022-11-13T08:04:10.801Z,211.50
2022-11-13T08:05:31.809Z,221.38
2022-11-13T08:06:53.997Z,168.00
2022-11-13T08:08:16.671Z,169.52
2022-11-13T08:09:38.859Z,161.23
2022-11-13T08:11:05.449Z,181.25
2022-11-13T08:12:27.587Z,142.88
2022-11-13T08:13:51.471Z,148.75
2022-11-13T08:15:13.643Z,135.93
2022-11-13T08:16:36.552Z,153.18
2022-11-13T08:17:59.882Z,151.80
2022-11-13T08:19:22.007Z,155.15
2022-11-13T08:20:44.487Z,103.70
2022-11-13T08:22:06.899Z,125.15
2022-11-13T08:23:29.113Z,82.88
2022-11-13T08:24:53.847Z,64.53
2022-11-13T08:26:16.409Z,78.40
2022-11-13T08:27:38.723Z,61.20
2022-11-13T08:29:02.561Z,61.38
2022-11-13T08:30:27.019Z,98.32
2022-11-13T08:31:49.462Z,65.85
2022-11-13T08:33:11.920Z,65.00
2022-11-13T08:34:34.540Z,88.68
2022-11-13T08:35:57.567Z,86.65
2022-11-13T08:37:19.936Z,62.72
2022-11-13T08:38:42.418Z,49.63
2022-11-13T08:40:05.382Z,66.88
2022-11-13T08:41:27.656Z,61.25
2022-11-13T08:42:50.210Z,75.93
2022-11-13T08:44:15.097Z,82.97
2022-11-13T08:45:37.480Z,64.32
2022-11-13T08:46:59.881Z,69.72
2022-11-13T08:48:22.150Z,63.30
2022-11-13T08:49:44.889Z,70.03
2022-11-13T08:51:07.407Z,65.80
2022-11-13T08:52:29.733Z,61.45
2022-11-13T08:53:52.265Z,59.83
2022-11-13T08:55:15.006Z,62.78
2022-11-13T08:56:37.661Z,81.13
2022-11-13T08:58:00.768Z,62.72
2022-11-13T08:59:24.572Z,67.18
2022-11-13T09:00:46.882Z,67.35
2022-11-13T09:02:13.117Z,59.10
2022-11-13T09:03:36.438Z,66.63
2022-11-13T09:04:58.761Z,61.90
2022-11-13T09:06:21.313Z,49.33
2022-11-13T09:07:43.657Z,47.53
2022-11-13T09:09:06.757Z,46.70
2022-11-13T09:10:28.776Z,46.13
2022-11-13T09:11:51.379Z,50.30
2022-11-13T09:13:13.456Z,49.78
2022-11-13T09:14:37.742Z,60.60
2022-11-13T09:16:00.707Z,59.30
2022-11-13T09:17:23.050Z,53.92
2022-11-13T09:18:45.530Z,55.50
2022-11-13T09:20:13.569Z,54.72
2022-11-13T09:21:36.190Z,49.63
2022-11-13T09:22:59.540Z,55.03
2022-11-13T09:24:21.790Z,56.28
2022-11-13T09:25:44.285Z,60.05
2022-11-13T09:27:06.569Z,49.72
2022-11-13T09:28:29.169Z,57.00
2022-11-13T09:29:55.728Z,52.17
2022-11-13T09:31:18.222Z,65.15
2022-11-13T09:32:40.750Z,50.22
2022-11-13T09:34:03.238Z,47.47
2022-11-13T09:35:35.161Z,56.92
2022-11-13T09:36:57.364Z,58.75
2022-11-13T09:38:19.593Z,44.42
2022-11-13T09:39:42.105Z,48.13
2022-11-13T09:41:06.727Z,49.35
2022-11-13T09:42:29.948Z,46.30
2022-11-13T09:43:59.244Z,41.30
2022-11-13T09:45:23.879Z,43.22
2022-11-13T09:46:50.846Z,46.15
2022-11-13T09:48:19.708Z,45.15
2022-11-13T09:49:45.048Z,45.67
2022-11-13T09:51:13.166Z,45.20
2022-11-13T09:52:38.147Z,37.10
2022-11-13T09:54:00.958Z,44.58
2022-11-13T09:55:26.169Z,44.53
2022-11-13T09:56:55.551Z,38.63
2022-11-13T09:58:21.958Z,50.65
2022-11-13T09:59:48.966Z,44.25
2022-11-13T10:01:17.777Z,45.40
2022-11-13T10:02:49.941Z,45.85
2022-11-13T10:04:14.599Z,47.15
2022-11-13T10:05:41.428Z,45.40
2022-11-13T10:07:23.210Z,49.35
2022-11-13T10:08:53.471Z,42.63
2022-11-13T10:10:29.604Z,36.47
2022-11-13T10:11:55.982Z,43.45
2022-11-13T10:13:23.341Z,37.72
2022-11-13T10:14:48.208Z,36.97
2022-11-13T10:16:21.388Z,39.22
2022-11-13T10:17:47.808Z,41.92
2022-11-13T10:19:13.890Z,39.00
2022-11-13T10:20:39.909Z,42.30
2022-11-13T10:22:31.720Z,44.00
2022-11-13T10:23:53.816Z,47.80
2022-11-13T10:25:20.412Z,39.97
2022-11-13T10:26:42.919Z,39.20
2022-11-13T10:30:07.853Z,37.58
2022-11-13T10:31:31.775Z,37.28
2022-11-13T10:32:54.034Z,37.67
2022-11-13T10:34:17.134Z,39.67
2022-11-13T10:35:49.327Z,36.15
2022-11-13T10:37:28.099Z,33.90
2022-11-13T10:38:51.979Z,33.47
2022-11-13T10:40:25.409Z,36.90
2022-11-13T10:41:49.517Z,33.90
2022-11-13T10:43:16.247Z,31.67
2022-11-13T10:44:40.931Z,29.25
2022-11-13T10:46:04.537Z,34.05
2022-11-13T10:48:02.073Z,36.33
2022-11-13T10:49:18.323Z,30.20
2022-11-13T10:50:41.688Z,30.25
2022-11-13T10:52:09.991Z,33.72
2022-11-13T10:53:40.216Z,32.67
2022-11-13T10:55:18.084Z,31.13
2022-11-13T10:56:40.323Z,32.10
2022-11-13T10:58:04.439Z,34.38
2022-11-13T10:59:28.979Z,31.73
2022-11-13T11:00:51.596Z,32.55
2022-11-13T11:02:19.568Z,35.13
2022-11-13T11:03:50.132Z,30.90
2022-11-13T11:05:19.982Z,29.58
2022-11-13T11:07:18.288Z,30.50
2022-11-13T11:08:30.445Z,30.70
2022-11-13T11:09:53.176Z,33.65
2022-11-13T11:11:40.267Z,30.33
2022-11-13T11:13:05.239Z,33.70
2022-11-13T11:14:29.188Z,31.10
2022-11-13T11:15:56.157Z,30.02
2022-11-13T11:17:19.752Z,29.08
2022-11-13T11:18:47.607Z,30.17
2022-11-13T11:20:20.817Z,29.40
2022-11-13T11:21:44.453Z,30.58
2022-11-13T11:23:21.028Z,31.13
2022-11-13T11:24:47.152Z,26.88
2022-11-13T11:26:14.477Z,27.13
2022-11-13T11:27:38.570Z,26.13
2022-11-13T11:29:07.781Z,31.17
2022-11-13T11:30:34.739Z,29.17
2022-11-13T11:32:02.160Z,31.00
2022-11-13T11:33:29.319Z,29.70
2022-11-13T11:34:59.223Z,29.85
2022-11-13T11:36:27.299Z,28.00
2022-11-13T11:37:54.939Z,31.02
2022-11-13T11:39:28.341Z,30.50
2022-11-13T11:40:54.248Z,34.10
2022-11-13T11:42:24.892Z,29.20
2022-11-13T11:43:49.911Z,30.65
2022-11-13T11:45:17.980Z,33.25
2022-11-13T11:46:44.087Z,30.33
2022-11-13T11:48:14.180Z,30.50
2022-11-13T11:49:36.704Z,29.83
2022-11-13T11:51:05.669Z,26.15
2022-11-13T11:52:48.196Z,32.00
2022-11-13T11:54:20.838Z,44.75
2022-11-13T11:56:02.935Z,30.80
2022-11-13T11:57:37.138Z,32.75
2022-11-13T11:59:23.837Z,31.85
2022-11-13T12:00:51.306Z,28.83
2022-11-13T12:02:33.140Z,32.22
2022-11-13T12:04:03.520Z,29.40
2022-11-13T12:05:27.855Z,26.55
2022-11-13T12:06:59.309Z,27.45
2022-11-13T12:08:30.551Z,29.40
2022-11-13T12:10:00.993Z,25.80
2022-11-13T12:11:28.571Z,26.88
2022-11-13T12:12:59.781Z,26.05
2022-11-13T12:14:32.239Z,24.60
2022-11-13T12:16:01.380Z,26.95
2022-11-13T12:17:42.168Z,27.23
2022-11-13T12:19:07.681Z,24.88
2022-11-13T12:20:37.547Z,27.08
2022-11-13T12:22:06.309Z,26.55
2022-11-13T12:23:37.099Z,25.33
2022-11-13T12:25:11.378Z,24.90
2022-11-13T12:26:37.670Z,26.23
2022-11-13T12:28:05.673Z,22.20
2022-11-13T12:29:42.201Z,28.70
2022-11-13T12:31:14.002Z,26.05
2022-11-13T12:32:56.970Z,28.40
2022-11-13T12:34:26.811Z,26.35
2022-11-13T12:35:52.084Z,25.48
2022-11-13T12:37:19.483Z,26.70
2022-11-13T12:38:46.709Z,24.02
2022-11-13T12:40:16.315Z,26.30
2022-11-13T12:41:42.845Z,24.30
2022-11-13T12:43:19.818Z,31.40
2022-11-13T12:44:50.427Z,30.08
2022-11-13T12:46:14.243Z,33.50
2022-11-13T12:47:37.100Z,30.02
2022-11-13T12:49:03.410Z,34.70
2022-11-13T12:50:32.577Z,38.63
2022-11-13T12:51:57.317Z,34.67
2022-11-13T12:53:28.682Z,31.42
2022-11-13T12:54:52.458Z,32.03
2022-11-13T12:56:30.849Z,31.02
2022-11-13T12:57:53.099Z,32.58
2022-11-13T12:59:34.416Z,34.42
2022-11-13T13:00:59.271Z,29.77
2022-11-13T13:02:47.090Z,31.05
2022-11-13T13:04:28.526Z,31.27
2022-11-13T13:06:06.381Z,31.30
2022-11-13T13:07:45.037Z,33.72
2022-11-13T13:09:28.559Z,29.42
2022-11-13T13:11:10.967Z,34.85
2022-11-13T13:12:41.980Z,31.67
2022-11-13T13:14:19.508Z,34.75
2022-11-13T13:15:44.604Z,36.78
2022-11-13T13:17:08.247Z,36.05
2022-11-13T13:18:32.397Z,34.15
2022-11-13T13:20:01.268Z,34.20
2022-11-13T13:21:23.576Z,39.45
2022-11-13T13:22:56.857Z,37.42
2022-11-13T13:24:34.661Z,36.30
2022-11-13T13:26:03.936Z,33.00
2022-11-13T13:27:27.892Z,37.22
2022-11-13T13:28:52.899Z,32.70
2022-11-13T13:30:20.280Z,30.48
2022-11-13T13:31:46.628Z,33.65
2022-11-13T13:33:19.086Z,32.75
2022-11-13T13:34:48.347Z,34.47
2022-11-13T13:36:18.977Z,35.47
2022-11-13T13:37:45.732Z,39.83
2022-11-13T13:39:20.933Z,34.85
2022-11-13T13:40:58.341Z,34.42
2022-11-13T13:42:34.277Z,35.15
2022-11-13T13:44:03.761Z,33.88
2022-11-13T13:45:34.920Z,33.17
2022-11-13T13:46:58.439Z,34.75
2022-11-13T13:48:22.657Z,32.83
2022-11-13T13:49:45.061Z,32.30
2022-11-13T13:51:18.215Z,35.55
2022-11-13T13:52:40.958Z,35.92
2022-11-13T13:54:06.837Z,36.85
2022-11-13T13:55:42.578Z,32.75
2022-11-13T13:57:13.170Z,34.22
2022-11-13T13:58:37.436Z,34.95
2022-11-13T14:00:00.021Z,39.97
2022-11-13T14:01:28.920Z,37.10
2022-11-13T14:02:52.748Z,38.70
2022-11-13T14:04:16.835Z,36.63
2022-11-13T14:05:38.368Z,40.53
2022-11-13T14:07:02.016Z,34.75
2022-11-13T14:08:25.834Z,36.63
2022-11-13T14:09:48.377Z,38.90
2022-11-13T14:11:22.215Z,38.55
2022-11-13T14:12:46.980Z,38.83
2022-11-13T14:14:09.229Z,40.63
2022-11-13T14:15:33.622Z,39.50
2022-11-13T14:16:57.166Z,41.65
2022-11-13T14:18:20.320Z,38.20
2022-11-13T14:19:42.460Z,46.70
2022-11-13T14:21:08.905Z,41.25
2022-11-13T14:22:31.438Z,38.22
2022-11-13T14:23:54.846Z,40.60
2022-11-13T14:25:22.741Z,43.17
2022-11-13T14:26:45.005Z,43.33
2022-11-13T14:28:15.578Z,43.20
2022-11-13T14:29:40.783Z,42.83
2022-11-13T14:31:05.645Z,39.72
2022-11-13T14:32:30.669Z,43.42
2022-11-13T14:33:52.938Z,42.10
2022-11-13T14:35:20.317Z,42.88
2022-11-13T14:36:42.466Z,46.67
2022-11-13T14:38:05.050Z,47.30
2022-11-13T14:39:30.788Z,45.30
2022-11-13T14:40:52.089Z,46.38
2022-11-13T14:42:18.739Z,47.65
2022-11-13T14:43:50.391Z,49.95
2022-11-13T14:45:18.017Z,46.88
2022-11-13T14:46:44.479Z,41.63
2022-11-13T14:48:19.959Z,42.78
2022-11-13T14:49:42.148Z,38.63
2022-11-13T14:51:06.474Z,40.90
2022-11-13T14:52:30.226Z,42.53
2022-11-13T14:53:59.894Z,40.25
2022-11-13T14:55:24.015Z,39.47
2022-11-13T14:56:47.129Z,45.92
2022-11-13T14:58:13.727Z,51.38
2022-11-13T14:59:38.107Z,47.78
2022-11-13T15:01:01.393Z,47.55
2022-11-13T15:02:23.711Z,34.30
2022-11-13T15:03:46.401Z,31.17
2022-11-13T15:05:09.086Z,42.95
2022-11-13T15:06:37.530Z,38.63
2022-11-13T15:08:01.016Z,34.10
2022-11-13T15:09:25.098Z,39.53
2022-11-13T15:10:47.689Z,35.25
2022-11-13T15:12:12.388Z,37.60
2022-11-13T15:13:34.550Z,39.25
2022-11-13T15:15:00.314Z,50.50
2022-11-13T15:16:25.030Z,48.95
2022-11-13T15:17:50.646Z,51.60
2022-11-13T15:19:17.506Z,53.78
2022-11-13T15:20:40.246Z,54.70
2022-11-13T15:22:25.892Z,50.08
2022-11-13T15:23:46.006Z,49.45
2022-11-13T15:25:17.637Z,48.50
2022-11-13T15:26:40.238Z,48.83
2022-11-13T15:28:02.551Z,51.78
2022-11-13T15:29:25.868Z,60.45
2022-11-13T15:30:49.705Z,48.05
2022-11-13T15:32:13.685Z,44.92
2022-11-13T15:33:36.357Z,48.22
2022-11-13T15:34:58.587Z,48.90
2022-11-13T15:36:24.209Z,59.20
2022-11-13T15:37:46.541Z,52.08
2022-11-13T15:39:15.657Z,58.28
2022-11-13T15:40:43.526Z,69.15
2022-11-13T15:42:07.941Z,63.80
2022-11-13T15:43:31.015Z,64.05
2022-11-13T15:44:54.701Z,66.90
2022-11-13T15:46:20.280Z,83.60
2022-11-13T15:47:44.360Z,82.13
2022-11-13T15:49:06.721Z,94.35
2022-11-13T15:50:30.269Z,102.95
2022-11-13T15:51:53.017Z,103.03
2022-11-13T15:53:15.246Z,106.28
2022-11-13T15:54:39.408Z,97.30
2022-11-13T15:56:05.267Z,99.30
2022-11-13T15:57:29.755Z,108.63
2022-11-13T15:58:52.043Z,96.55
2022-11-13T16:00:21.629Z,96.72
2022-11-13T16:01:47.520Z,102.85
2022-11-13T16:03:13.254Z,104.53
2022-11-13T16:04:55.082Z,105.25
2022-11-13T16:06:21.179Z,108.15
2022-11-13T16:07:45.195Z,117.68
2022-11-13T16:09:08.297Z,122.95
2022-11-13T16:10:31.197Z,115.03
2022-11-13T16:11:53.647Z,114.32
2022-11-13T16:13:18.816Z,114.68
2022-11-13T16:14:42.202Z,117.40
2022-11-13T16:16:05.483Z,107.90
2022-11-13T16:17:29.289Z,101.80
2022-11-13T16:19:00.012Z,104.97
2022-11-13T16:20:24.439Z,104.65
2022-11-13T16:21:47.617Z,110.18
2022-11-13T16:23:14.648Z,105.97
2022-11-13T16:24:37.039Z,101.32
2022-11-13T16:25:59.618Z,105.75
2022-11-13T16:27:28.377Z,115.93
2022-11-13T16:29:12.736Z,113.72
2022-11-13T16:30:35.748Z,126.03
2022-11-13T16:31:58.307Z,122.90
2022-11-13T16:33:22.727Z,120.85
2022-11-13T16:34:45.258Z,130.00
2022-11-13T16:36:12.765Z,126.50
2022-11-13T16:37:35.626Z,142.07
2022-11-13T16:38:58.196Z,143.90
2022-11-13T16:40:22.630Z,134.23
2022-11-13T16:41:45.033Z,155.80
2022-11-13T16:43:07.628Z,156.90
2022-11-13T16:44:30.009Z,184.80
2022-11-13T16:45:53.847Z,163.82
2022-11-13T16:47:22.818Z,163.93
2022-11-13T16:48:47.036Z,157.20
2022-11-13T16:50:14.795Z,158.85
2022-11-13T16:51:36.984Z,161.52
2022-11-13T16:52:59.608Z,148.90
2022-11-13T16:54:21.985Z,171.63
2022-11-13T16:55:44.763Z,154.77
2022-11-13T16:57:07.316Z,154.90
2022-11-13T16:58:29.494Z,142.95
2022-11-13T16:59:51.826Z,146.32
2022-11-13T17:01:17.557Z,140.48
2022-11-13T17:02:41.023Z,139.43
2022-11-13T17:04:04.889Z,149.77
2022-11-13T17:05:27.072Z,143.32
2022-11-13T17:06:56.576Z,152.60
2022-11-13T17:08:20.597Z,145.45
2022-11-13T17:09:43.366Z,145.30
2022-11-13T17:11:05.651Z,162.13
2022-11-13T17:12:28.058Z,147.57
2022-11-13T17:13:51.708Z,156.77
2022-11-13T17:15:16.848Z,161.95
2022-11-13T17:16:39.444Z,146.70
2022-11-13T17:18:03.068Z,134.35
2022-11-13T17:19:26.918Z,143.02
2022-11-13T17:20:52.660Z,129.32
2022-11-13T17:22:17.222Z,140.02
2022-11-13T17:24:02.005Z,138.38
2022-11-13T17:25:26.971Z,128.05
2022-11-13T17:26:49.189Z,125.20
2022-11-13T17:28:12.399Z,134.55
2022-11-13T17:29:35.716Z,122.22
2022-11-13T17:31:05.199Z,129.68
2022-11-13T17:32:30.068Z,138.77
2022-11-13T17:33:54.417Z,122.57
2022-11-13T17:35:18.419Z,118.28
2022-11-13T17:36:40.780Z,133.80
2022-11-13T17:38:03.677Z,119.20
2022-11-13T17:39:26.167Z,125.57
2022-11-13T17:40:47.848Z,120.80
2022-11-13T17:42:10.737Z,133.98
2022-11-13T17:43:33.008Z,125.40
2022-11-13T17:44:55.418Z,124.28
2022-11-13T17:46:19.294Z,127.80
2022-11-13T17:47:41.933Z,111.03
2022-11-13T17:49:04.656Z,118.72
2022-11-13T17:50:28.787Z,143.73
2022-11-13T17:51:51.270Z,144.88
2022-11-13T17:53:13.524Z,129.65
2022-11-13T17:54:35.848Z,152.02
2022-11-13T17:55:59.326Z,139.38
2022-11-13T17:57:26.677Z,190.70
2022-11-13T17:58:52.280Z,185.82